sensor_id;sensor_type;location;lat;lon;timestamp;P1;durP1;ratioP1;P2;durP2;ratioP2
41946;SDS011;27638;42.184;24.848;2022-10-16T00:01:19;14.82;;;8.63;;
41946;SDS011;27638;42.184;24.848;2022-10-16T00:03:47;14.48;;;9.10;;
41946;SDS011;27638;42.184;24.848;2022-10-16T00:06:14;19.23;;;8.73;;
41946;SDS011;27638;42.184;24.848;2022-10-16T00:08:41;15.45;;;8.35;;
41946;SDS011;27638;42.184;24.848;2022-10-16T00:11:08;17.85;;;8.65;;
41946;SDS011;27638;42.184;24.848;2022-10-16T00:13:37;15.25;;;8.30;;
41946;SDS011;27638;42.184;24.848;2022-10-16T00:16:04;19.88;;;8.18;;
41946;SDS011;27638;42.184;24.848;2022-10-16T00:18:30;12.75;;;7.85;;
41946;SDS011;27638;42.184;24.848;2022-10-16T00:21:00;13.88;;;8.30;;
41946;SDS011;27638;42.184;24.848;2022-10-16T00:23:27;19.83;;;9.13;;
41946;SDS011;27638;42.184;24.848;2022-10-16T00:25:56;16.20;;;8.38;;
41946;SDS011;27638;42.184;24.848;2022-10-16T00:28:23;18.15;;;8.55;;
41946;SDS011;27638;42.184;24.848;2022-10-16T00:30:48;16.17;;;9.13;;
41946;SDS011;27638;42.184;24.848;2022-10-16T00:33:14;15.95;;;8.70;;
41946;SDS011;27638;42.184;24.848;2022-10-16T00:35:44;19.88;;;8.68;;
41946;SDS011;27638;42.184;24.848;2022-10-16T00:38:29;15.18;;;8.18;;
41946;SDS011;27638;42.184;24.848;2022-10-16T00:40:54;16.95;;;8.75;;
41946;SDS011;27638;42.184;24.848;2022-10-16T00:43:33;17.90;;;8.25;;
41946;SDS011;27638;42.184;24.848;2022-10-16T00:46:05;22.55;;;8.60;;
41946;SDS011;27638;42.184;24.848;2022-10-16T00:48:36;18.83;;;7.90;;
41946;SDS011;27638;42.184;24.848;2022-10-16T00:51:01;21.60;;;8.80;;
41946;SDS011;27638;42.184;24.848;2022-10-16T00:53:29;13.40;;;8.20;;
41946;SDS011;27638;42.184;24.848;2022-10-16T00:55:55;18.55;;;8.75;;
41946;SDS011;27638;42.184;24.848;2022-10-16T00:58:21;16.08;;;8.30;;
41946;SDS011;27638;42.184;24.848;2022-10-16T01:00:46;19.67;;;8.35;;
41946;SDS011;27638;42.184;24.848;2022-10-16T01:03:25;15.90;;;8.40;;
41946;SDS011;27638;42.184;24.848;2022-10-16T01:06:03;14.55;;;8.88;;
41946;SDS011;27638;42.184;24.848;2022-10-16T01:08:39;14.32;;;8.25;;
41946;SDS011;27638;42.184;24.848;2022-10-16T01:11:22;23.77;;;8.73;;
41946;SDS011;27638;42.184;24.848;2022-10-16T01:13:58;13.63;;;8.55;;
41946;SDS011;27638;42.184;24.848;2022-10-16T01:16:32;16.15;;;8.35;;
41946;SDS011;27638;42.184;24.848;2022-10-16T01:21:41;14.45;;;8.98;;
41946;SDS011;27638;42.184;24.848;2022-10-16T01:29:48;18.27;;;8.25;;
41946;SDS011;27638;42.184;24.848;2022-10-16T01:37:20;17.75;;;7.85;;
41946;SDS011;27638;42.184;24.848;2022-10-16T01:39:53;12.75;;;7.32;;
41946;SDS011;27638;42.184;24.848;2022-10-16T01:42:24;12.25;;;7.18;;
41946;SDS011;27638;42.184;24.848;2022-10-16T01:44:56;11.50;;;7.65;;
41946;SDS011;27638;42.184;24.848;2022-10-16T01:47:23;21.75;;;8.70;;
41946;SDS011;27638;42.184;24.848;2022-10-16T01:49:51;12.75;;;7.45;;
41946;SDS011;27638;42.184;24.848;2022-10-16T01:52:20;13.30;;;7.18;;
41946;SDS011;27638;42.184;24.848;2022-10-16T01:54:49;16.35;;;7.10;;
41946;SDS011;27638;42.184;24.848;2022-10-16T01:57:17;11.05;;;6.97;;
41946;SDS011;27638;42.184;24.848;2022-10-16T01:59:46;9.90;;;7.00;;
41946;SDS011;27638;42.184;24.848;2022-10-16T02:02:14;12.63;;;7.60;;
41946;SDS011;27638;42.184;24.848;2022-10-16T02:04:43;10.93;;;7.85;;
41946;SDS011;27638;42.184;24.848;2022-10-16T02:07:14;15.80;;;9.00;;
41946;SDS011;27638;42.184;24.848;2022-10-16T02:09:41;13.07;;;7.75;;
41946;SDS011;27638;42.184;24.848;2022-10-16T02:12:12;13.57;;;7.70;;
41946;SDS011;27638;42.184;24.848;2022-10-16T02:14:43;17.23;;;8.10;;
41946;SDS011;27638;42.184;24.848;2022-10-16T02:17:13;13.32;;;7.70;;
41946;SDS011;27638;42.184;24.848;2022-10-16T02:19:40;12.80;;;7.65;;
41946;SDS011;27638;42.184;24.848;2022-10-16T02:22:08;12.90;;;6.72;;
41946;SDS011;27638;42.184;24.848;2022-10-16T02:27:33;14.07;;;6.38;;
41946;SDS011;27638;42.184;24.848;2022-10-16T02:32:52;12.43;;;7.70;;
41946;SDS011;27638;42.184;24.848;2022-10-16T02:35:18;16.08;;;7.75;;
41946;SDS011;27638;42.184;24.848;2022-10-16T02:40:49;10.65;;;7.72;;
41946;SDS011;27638;42.184;24.848;2022-10-16T02:43:15;11.25;;;6.97;;
41946;SDS011;27638;42.184;24.848;2022-10-16T02:45:41;13.57;;;7.50;;
41946;SDS011;27638;42.184;24.848;2022-10-16T02:48:07;19.13;;;7.25;;
41946;SDS011;27638;42.184;24.848;2022-10-16T02:50:32;14.02;;;7.53;;
41946;SDS011;27638;42.184;24.848;2022-10-16T02:52:58;15.60;;;7.72;;
41946;SDS011;27638;42.184;24.848;2022-10-16T02:55:23;14.00;;;8.35;;
41946;SDS011;27638;42.184;24.848;2022-10-16T02:57:48;12.55;;;7.40;;
41946;SDS011;27638;42.184;24.848;2022-10-16T03:00:15;24.55;;;8.13;;
41946;SDS011;27638;42.184;24.848;2022-10-16T03:02:42;13.77;;;7.97;;
41946;SDS011;27638;42.184;24.848;2022-10-16T03:05:08;16.67;;;8.45;;
41946;SDS011;27638;42.184;24.848;2022-10-16T03:07:34;19.83;;;8.75;;
41946;SDS011;27638;42.184;24.848;2022-10-16T03:10:00;14.63;;;7.47;;
41946;SDS011;27638;42.184;24.848;2022-10-16T03:12:26;18.75;;;8.10;;
41946;SDS011;27638;42.184;24.848;2022-10-16T03:14:52;15.30;;;8.10;;
41946;SDS011;27638;42.184;24.848;2022-10-16T03:17:18;15.73;;;7.82;;
41946;SDS011;27638;42.184;24.848;2022-10-16T03:19:43;11.52;;;7.38;;
41946;SDS011;27638;42.184;24.848;2022-10-16T03:22:09;11.43;;;7.68;;
41946;SDS011;27638;42.184;24.848;2022-10-16T03:27:37;18.05;;;7.63;;
41946;SDS011;27638;42.184;24.848;2022-10-16T03:35:53;11.88;;;7.18;;
41946;SDS011;27638;42.184;24.848;2022-10-16T03:38:19;10.20;;;7.30;;
41946;SDS011;27638;42.184;24.848;2022-10-16T03:40:45;10.55;;;6.75;;
41946;SDS011;27638;42.184;24.848;2022-10-16T03:43:10;11.07;;;6.32;;
41946;SDS011;27638;42.184;24.848;2022-10-16T03:45:36;12.65;;;6.88;;
41946;SDS011;27638;42.184;24.848;2022-10-16T03:48:01;10.88;;;6.70;;
41946;SDS011;27638;42.184;24.848;2022-10-16T03:50:28;13.30;;;6.40;;
41946;SDS011;27638;42.184;24.848;2022-10-16T03:52:53;13.25;;;7.35;;
41946;SDS011;27638;42.184;24.848;2022-10-16T03:55:21;12.95;;;7.20;;
41946;SDS011;27638;42.184;24.848;2022-10-16T03:57:46;14.23;;;7.07;;
41946;SDS011;27638;42.184;24.848;2022-10-16T04:00:12;9.95;;;6.63;;
41946;SDS011;27638;42.184;24.848;2022-10-16T04:02:38;12.80;;;6.38;;
41946;SDS011;27638;42.184;24.848;2022-10-16T04:05:03;14.20;;;7.13;;
41946;SDS011;27638;42.184;24.848;2022-10-16T04:07:29;9.93;;;6.85;;
41946;SDS011;27638;42.184;24.848;2022-10-16T04:09:55;10.40;;;6.05;;
41946;SDS011;27638;42.184;24.848;2022-10-16T04:12:22;13.35;;;6.25;;
41946;SDS011;27638;42.184;24.848;2022-10-16T04:14:47;10.95;;;6.38;;
41946;SDS011;27638;42.184;24.848;2022-10-16T04:17:13;9.73;;;6.30;;
41946;SDS011;27638;42.184;24.848;2022-10-16T04:19:38;10.85;;;6.53;;
41946;SDS011;27638;42.184;24.848;2022-10-16T04:22:04;10.73;;;6.10;;
41946;SDS011;27638;42.184;24.848;2022-10-16T04:24:29;12.00;;;6.15;;
41946;SDS011;27638;42.184;24.848;2022-10-16T04:26:55;10.98;;;6.82;;
41946;SDS011;27638;42.184;24.848;2022-10-16T04:29:21;14.18;;;6.85;;
41946;SDS011;27638;42.184;24.848;2022-10-16T04:31:46;10.50;;;6.28;;
41946;SDS011;27638;42.184;24.848;2022-10-16T04:34:12;13.00;;;6.63;;
41946;SDS011;27638;42.184;24.848;2022-10-16T04:36:37;13.05;;;6.50;;
41946;SDS011;27638;42.184;24.848;2022-10-16T04:39:03;13.68;;;6.32;;
41946;SDS011;27638;42.184;24.848;2022-10-16T04:41:28;17.35;;;6.93;;
41946;SDS011;27638;42.184;24.848;2022-10-16T04:43:54;12.95;;;6.40;;
41946;SDS011;27638;42.184;24.848;2022-10-16T04:46:19;14.65;;;5.97;;
41946;SDS011;27638;42.184;24.848;2022-10-16T04:48:45;10.85;;;7.03;;
41946;SDS011;27638;42.184;24.848;2022-10-16T04:51:11;11.35;;;6.70;;
41946;SDS011;27638;42.184;24.848;2022-10-16T04:53:37;9.88;;;6.68;;
41946;SDS011;27638;42.184;24.848;2022-10-16T04:56:03;13.55;;;6.72;;
41946;SDS011;27638;42.184;24.848;2022-10-16T04:58:28;13.00;;;7.53;;
41946;SDS011;27638;42.184;24.848;2022-10-16T05:00:54;10.73;;;7.03;;
41946;SDS011;27638;42.184;24.848;2022-10-16T05:03:19;16.73;;;6.78;;
41946;SDS011;27638;42.184;24.848;2022-10-16T05:05:45;14.50;;;6.40;;
41946;SDS011;27638;42.184;24.848;2022-10-16T05:08:12;12.70;;;7.15;;
41946;SDS011;27638;42.184;24.848;2022-10-16T05:10:39;13.48;;;6.80;;
41946;SDS011;27638;42.184;24.848;2022-10-16T05:13:09;15.68;;;7.05;;
41946;SDS011;27638;42.184;24.848;2022-10-16T05:15:35;13.25;;;8.13;;
41946;SDS011;27638;42.184;24.848;2022-10-16T05:18:01;15.35;;;6.50;;
41946;SDS011;27638;42.184;24.848;2022-10-16T05:20:27;14.18;;;7.25;;
41946;SDS011;27638;42.184;24.848;2022-10-16T05:22:53;10.63;;;6.47;;
41946;SDS011;27638;42.184;24.848;2022-10-16T05:25:18;11.52;;;6.78;;
41946;SDS011;27638;42.184;24.848;2022-10-16T05:27:47;7.82;;;5.90;;
41946;SDS011;27638;42.184;24.848;2022-10-16T05:30:13;13.88;;;7.53;;
41946;SDS011;27638;42.184;24.848;2022-10-16T05:32:39;13.07;;;7.40;;
41946;SDS011;27638;42.184;24.848;2022-10-16T05:35:05;13.90;;;7.63;;
41946;SDS011;27638;42.184;24.848;2022-10-16T05:37:31;13.15;;;8.05;;
41946;SDS011;27638;42.184;24.848;2022-10-16T05:39:56;15.02;;;8.45;;
41946;SDS011;27638;42.184;24.848;2022-10-16T05:42:22;18.40;;;8.30;;
41946;SDS011;27638;42.184;24.848;2022-10-16T05:44:47;19.15;;;8.93;;
41946;SDS011;27638;42.184;24.848;2022-10-16T05:47:13;17.10;;;9.63;;
41946;SDS011;27638;42.184;24.848;2022-10-16T05:49:39;18.45;;;10.48;;
41946;SDS011;27638;42.184;24.848;2022-10-16T05:52:05;20.92;;;10.93;;
41946;SDS011;27638;42.184;24.848;2022-10-16T05:54:30;20.90;;;11.77;;
41946;SDS011;27638;42.184;24.848;2022-10-16T05:56:56;29.20;;;14.75;;
41946;SDS011;27638;42.184;24.848;2022-10-16T05:59:21;26.42;;;15.15;;
41946;SDS011;27638;42.184;24.848;2022-10-16T06:01:47;24.02;;;14.18;;
41946;SDS011;27638;42.184;24.848;2022-10-16T06:04:12;23.35;;;12.90;;
41946;SDS011;27638;42.184;24.848;2022-10-16T06:06:38;22.90;;;11.38;;
41946;SDS011;27638;42.184;24.848;2022-10-16T06:09:03;21.88;;;9.75;;
41946;SDS011;27638;42.184;24.848;2022-10-16T06:11:30;14.98;;;7.97;;
41946;SDS011;27638;42.184;24.848;2022-10-16T06:13:58;13.38;;;6.55;;
41946;SDS011;27638;42.184;24.848;2022-10-16T06:16:41;9.73;;;6.75;;
41946;SDS011;27638;42.184;24.848;2022-10-16T06:19:07;10.68;;;6.28;;
41946;SDS011;27638;42.184;24.848;2022-10-16T06:21:34;9.77;;;6.85;;
41946;SDS011;27638;42.184;24.848;2022-10-16T06:24:00;8.65;;;6.28;;
41946;SDS011;27638;42.184;24.848;2022-10-16T06:26:26;10.63;;;6.13;;
41946;SDS011;27638;42.184;24.848;2022-10-16T06:28:54;9.63;;;6.05;;
41946;SDS011;27638;42.184;24.848;2022-10-16T06:31:21;12.88;;;6.97;;
41946;SDS011;27638;42.184;24.848;2022-10-16T06:33:49;10.27;;;7.30;;
41946;SDS011;27638;42.184;24.848;2022-10-16T06:36:16;16.85;;;11.02;;
41946;SDS011;27638;42.184;24.848;2022-10-16T06:38:42;12.90;;;7.65;;
41946;SDS011;27638;42.184;24.848;2022-10-16T06:41:13;14.27;;;8.43;;
41946;SDS011;27638;42.184;24.848;2022-10-16T06:43:40;21.27;;;10.65;;
41946;SDS011;27638;42.184;24.848;2022-10-16T06:46:07;11.70;;;7.82;;
41946;SDS011;27638;42.184;24.848;2022-10-16T06:49:11;11.27;;;5.82;;
41946;SDS011;27638;42.184;24.848;2022-10-16T06:51:37;14.50;;;6.65;;
41946;SDS011;27638;42.184;24.848;2022-10-16T06:54:05;14.32;;;6.40;;
41946;SDS011;27638;42.184;24.848;2022-10-16T06:56:31;12.23;;;6.38;;
41946;SDS011;27638;42.184;24.848;2022-10-16T06:58:58;13.68;;;6.82;;
41946;SDS011;27638;42.184;24.848;2022-10-16T07:04:35;12.90;;;7.00;;
41946;SDS011;27638;42.184;24.848;2022-10-16T07:07:01;17.45;;;11.05;;
41946;SDS011;27638;42.184;24.848;2022-10-16T07:09:26;12.75;;;7.28;;
41946;SDS011;27638;42.184;24.848;2022-10-16T07:11:52;18.05;;;7.72;;
41946;SDS011;27638;42.184;24.848;2022-10-16T07:14:33;16.13;;;7.70;;
41946;SDS011;27638;42.184;24.848;2022-10-16T07:16:59;14.70;;;7.47;;
41946;SDS011;27638;42.184;24.848;2022-10-16T07:19:24;10.18;;;7.10;;
41946;SDS011;27638;42.184;24.848;2022-10-16T07:21:50;14.80;;;7.43;;
41946;SDS011;27638;42.184;24.848;2022-10-16T07:24:16;12.70;;;7.35;;
41946;SDS011;27638;42.184;24.848;2022-10-16T07:26:42;19.17;;;7.30;;
41946;SDS011;27638;42.184;24.848;2022-10-16T07:29:13;19.33;;;8.35;;
41946;SDS011;27638;42.184;24.848;2022-10-16T07:31:41;15.85;;;8.82;;
41946;SDS011;27638;42.184;24.848;2022-10-16T07:34:07;14.10;;;7.55;;
41946;SDS011;27638;42.184;24.848;2022-10-16T07:36:33;13.32;;;6.88;;
41946;SDS011;27638;42.184;24.848;2022-10-16T07:38:59;12.38;;;7.55;;
41946;SDS011;27638;42.184;24.848;2022-10-16T07:41:24;15.27;;;7.38;;
41946;SDS011;27638;42.184;24.848;2022-10-16T07:43:51;14.23;;;7.18;;
41946;SDS011;27638;42.184;24.848;2022-10-16T07:46:18;13.80;;;7.45;;
41946;SDS011;27638;42.184;24.848;2022-10-16T07:48:44;12.95;;;7.97;;
41946;SDS011;27638;42.184;24.848;2022-10-16T07:51:12;17.25;;;7.47;;
41946;SDS011;27638;42.184;24.848;2022-10-16T07:53:39;12.20;;;7.57;;
41946;SDS011;27638;42.184;24.848;2022-10-16T07:56:06;11.90;;;8.10;;
41946;SDS011;27638;42.184;24.848;2022-10-16T07:58:32;13.23;;;7.80;;
41946;SDS011;27638;42.184;24.848;2022-10-16T08:01:06;14.45;;;7.43;;
41946;SDS011;27638;42.184;24.848;2022-10-16T08:03:32;14.55;;;7.82;;
41946;SDS011;27638;42.184;24.848;2022-10-16T08:05:58;20.85;;;14.85;;
41946;SDS011;27638;42.184;24.848;2022-10-16T08:08:25;13.15;;;10.68;;
41946;SDS011;27638;42.184;24.848;2022-10-16T08:10:50;16.77;;;7.95;;
41946;SDS011;27638;42.184;24.848;2022-10-16T08:13:16;13.98;;;7.75;;
41946;SDS011;27638;42.184;24.848;2022-10-16T08:15:45;14.65;;;7.85;;
41946;SDS011;27638;42.184;24.848;2022-10-16T08:18:11;13.27;;;6.75;;
41946;SDS011;27638;42.184;24.848;2022-10-16T08:20:38;14.82;;;7.68;;
41946;SDS011;27638;42.184;24.848;2022-10-16T08:23:04;15.68;;;7.40;;
41946;SDS011;27638;42.184;24.848;2022-10-16T08:25:31;13.50;;;6.82;;
41946;SDS011;27638;42.184;24.848;2022-10-16T08:27:56;12.73;;;7.25;;
41946;SDS011;27638;42.184;24.848;2022-10-16T08:30:22;14.73;;;8.10;;
41946;SDS011;27638;42.184;24.848;2022-10-16T08:35:42;24.40;;;13.70;;
41946;SDS011;27638;42.184;24.848;2022-10-16T08:38:07;12.32;;;6.97;;
41946;SDS011;27638;42.184;24.848;2022-10-16T08:40:35;9.48;;;5.78;;
41946;SDS011;27638;42.184;24.848;2022-10-16T08:46:15;10.23;;;6.20;;
41946;SDS011;27638;42.184;24.848;2022-10-16T08:49:10;9.82;;;5.60;;
41946;SDS011;27638;42.184;24.848;2022-10-16T08:51:38;10.27;;;6.50;;
41946;SDS011;27638;42.184;24.848;2022-10-16T08:54:05;12.95;;;7.35;;
41946;SDS011;27638;42.184;24.848;2022-10-16T08:56:38;11.30;;;6.97;;
41946;SDS011;27638;42.184;24.848;2022-10-16T08:59:04;15.60;;;6.28;;
41946;SDS011;27638;42.184;24.848;2022-10-16T09:01:37;11.82;;;6.05;;
41946;SDS011;27638;42.184;24.848;2022-10-16T09:07:04;10.38;;;6.43;;
41946;SDS011;27638;42.184;24.848;2022-10-16T09:12:17;13.32;;;6.68;;
41946;SDS011;27638;42.184;24.848;2022-10-16T09:20:28;11.10;;;5.80;;
41946;SDS011;27638;42.184;24.848;2022-10-16T09:25:38;12.45;;;5.20;;
41946;SDS011;27638;42.184;24.848;2022-10-16T09:28:07;7.72;;;4.85;;
41946;SDS011;27638;42.184;24.848;2022-10-16T09:30:33;13.90;;;4.93;;
41946;SDS011;27638;42.184;24.848;2022-10-16T09:32:58;12.27;;;5.10;;
41946;SDS011;27638;42.184;24.848;2022-10-16T09:35:27;12.32;;;4.80;;
41946;SDS011;27638;42.184;24.848;2022-10-16T09:38:23;10.68;;;4.45;;
41946;SDS011;27638;42.184;24.848;2022-10-16T09:40:58;11.45;;;5.18;;
41946;SDS011;27638;42.184;24.848;2022-10-16T09:48:48;14.90;;;5.93;;
41946;SDS011;27638;42.184;24.848;2022-10-16T09:53:53;15.95;;;9.23;;
41946;SDS011;27638;42.184;24.848;2022-10-16T09:56:28;7.00;;;4.22;;
41946;SDS011;27638;42.184;24.848;2022-10-16T09:59:02;8.23;;;4.13;;
41946;SDS011;27638;42.184;24.848;2022-10-16T10:01:36;16.60;;;10.25;;
41946;SDS011;27638;42.184;24.848;2022-10-16T10:04:04;11.10;;;8.07;;
41946;SDS011;27638;42.184;24.848;2022-10-16T10:06:31;13.65;;;5.28;;
41946;SDS011;27638;42.184;24.848;2022-10-16T10:17:12;18.80;;;8.25;;
41946;SDS011;27638;42.184;24.848;2022-10-16T10:22:43;13.00;;;7.63;;
41946;SDS011;27638;42.184;24.848;2022-10-16T10:33:08;9.10;;;4.60;;
41946;SDS011;27638;42.184;24.848;2022-10-16T10:43:29;6.43;;;4.45;;
41946;SDS011;27638;42.184;24.848;2022-10-16T10:46:14;6.20;;;4.47;;
41946;SDS011;27638;42.184;24.848;2022-10-16T10:55:40;11.18;;;6.30;;
41946;SDS011;27638;42.184;24.848;2022-10-16T10:58:14;8.88;;;4.43;;
41946;SDS011;27638;42.184;24.848;2022-10-16T11:06:05;9.55;;;4.70;;
41946;SDS011;27638;42.184;24.848;2022-10-16T11:08:36;10.80;;;4.45;;
41946;SDS011;27638;42.184;24.848;2022-10-16T11:11:10;15.77;;;8.35;;
41946;SDS011;27638;42.184;24.848;2022-10-16T11:13:55;34.30;;;22.27;;
41946;SDS011;27638;42.184;24.848;2022-10-16T11:16:28;9.60;;;4.32;;
41946;SDS011;27638;42.184;24.848;2022-10-16T11:21:25;10.55;;;4.53;;
41946;SDS011;27638;42.184;24.848;2022-10-16T11:23:56;10.63;;;6.10;;
41946;SDS011;27638;42.184;24.848;2022-10-16T11:26:29;20.85;;;11.55;;
41946;SDS011;27638;42.184;24.848;2022-10-16T11:29:00;7.53;;;5.28;;
41946;SDS011;27638;42.184;24.848;2022-10-16T11:31:38;9.10;;;5.90;;
41946;SDS011;27638;42.184;24.848;2022-10-16T11:36:51;34.80;;;21.35;;
41946;SDS011;27638;42.184;24.848;2022-10-16T11:39:23;10.40;;;4.65;;
41946;SDS011;27638;42.184;24.848;2022-10-16T11:44:53;14.38;;;8.63;;
41946;SDS011;27638;42.184;24.848;2022-10-16T11:47:34;9.32;;;6.20;;
41946;SDS011;27638;42.184;24.848;2022-10-16T11:52:58;8.90;;;4.60;;
41946;SDS011;27638;42.184;24.848;2022-10-16T11:55:34;7.88;;;4.13;;
41946;SDS011;27638;42.184;24.848;2022-10-16T11:58:02;7.95;;;4.25;;
41946;SDS011;27638;42.184;24.848;2022-10-16T12:00:37;10.70;;;5.28;;
41946;SDS011;27638;42.184;24.848;2022-10-16T12:03:11;11.38;;;8.63;;
41946;SDS011;27638;42.184;24.848;2022-10-16T12:06:06;15.63;;;9.52;;
41946;SDS011;27638;42.184;24.848;2022-10-16T12:08:39;8.82;;;5.28;;
41946;SDS011;27638;42.184;24.848;2022-10-16T12:11:19;5.88;;;3.70;;
41946;SDS011;27638;42.184;24.848;2022-10-16T12:13:48;6.60;;;4.47;;
41946;SDS011;27638;42.184;24.848;2022-10-16T12:18:41;7.93;;;4.03;;
41946;SDS011;27638;42.184;24.848;2022-10-16T12:21:08;11.45;;;4.63;;
41946;SDS011;27638;42.184;24.848;2022-10-16T12:23:45;9.82;;;5.07;;
41946;SDS011;27638;42.184;24.848;2022-10-16T12:28:50;9.05;;;4.32;;
41946;SDS011;27638;42.184;24.848;2022-10-16T12:31:16;9.60;;;4.20;;
41946;SDS011;27638;42.184;24.848;2022-10-16T12:33:54;8.13;;;3.97;;
41946;SDS011;27638;42.184;24.848;2022-10-16T12:36:29;6.35;;;4.32;;
41946;SDS011;27638;42.184;24.848;2022-10-16T12:38:58;9.50;;;4.25;;
41946;SDS011;27638;42.184;24.848;2022-10-16T12:41:29;9.52;;;4.07;;
41946;SDS011;27638;42.184;24.848;2022-10-16T12:44:04;12.05;;;5.53;;
41946;SDS011;27638;42.184;24.848;2022-10-16T12:49:19;10.63;;;4.15;;
41946;SDS011;27638;42.184;24.848;2022-10-16T12:51:53;9.95;;;4.30;;
41946;SDS011;27638;42.184;24.848;2022-10-16T12:54:25;7.63;;;4.20;;
41946;SDS011;27638;42.184;24.848;2022-10-16T13:05:26;5.88;;;4.25;;
41946;SDS011;27638;42.184;24.848;2022-10-16T13:11:01;9.85;;;4.65;;
41946;SDS011;27638;42.184;24.848;2022-10-16T13:13:44;11.95;;;4.47;;
41946;SDS011;27638;42.184;24.848;2022-10-16T13:21:41;7.18;;;4.10;;
41946;SDS011;27638;42.184;24.848;2022-10-16T13:24:14;6.95;;;4.28;;
41946;SDS011;27638;42.184;24.848;2022-10-16T13:30:15;7.03;;;4.32;;
41946;SDS011;27638;42.184;24.848;2022-10-16T13:32:58;9.40;;;4.43;;
41946;SDS011;27638;42.184;24.848;2022-10-16T13:35:27;8.77;;;4.32;;
41946;SDS011;27638;42.184;24.848;2022-10-16T13:38:05;7.60;;;4.25;;
41946;SDS011;27638;42.184;24.848;2022-10-16T13:40:37;6.95;;;4.25;;
41946;SDS011;27638;42.184;24.848;2022-10-16T13:43:27;8.15;;;4.55;;
41946;SDS011;27638;42.184;24.848;2022-10-16T13:46:06;8.40;;;4.15;;
41946;SDS011;27638;42.184;24.848;2022-10-16T13:48:36;8.70;;;4.22;;
41946;SDS011;27638;42.184;24.848;2022-10-16T13:51:03;7.35;;;4.53;;
41946;SDS011;27638;42.184;24.848;2022-10-16T13:53:35;6.20;;;4.25;;
41946;SDS011;27638;42.184;24.848;2022-10-16T13:56:02;9.15;;;4.25;;
41946;SDS011;27638;42.184;24.848;2022-10-16T13:58:29;9.68;;;4.28;;
41946;SDS011;27638;42.184;24.848;2022-10-16T14:00:56;7.82;;;4.35;;
41946;SDS011;27638;42.184;24.848;2022-10-16T14:03:22;7.95;;;4.40;;
41946;SDS011;27638;42.184;24.848;2022-10-16T14:05:50;6.82;;;4.20;;
41946;SDS011;27638;42.184;24.848;2022-10-16T14:08:21;21.30;;;9.30;;
41946;SDS011;27638;42.184;24.848;2022-10-16T14:10:49;6.78;;;4.32;;
41946;SDS011;27638;42.184;24.848;2022-10-16T14:13:19;14.93;;;4.57;;
41946;SDS011;27638;42.184;24.848;2022-10-16T14:15:54;9.35;;;4.22;;
41946;SDS011;27638;42.184;24.848;2022-10-16T14:18:23;6.40;;;4.13;;
41946;SDS011;27638;42.184;24.848;2022-10-16T14:20:51;8.43;;;4.07;;
41946;SDS011;27638;42.184;24.848;2022-10-16T14:23:22;9.60;;;4.15;;
41946;SDS011;27638;42.184;24.848;2022-10-16T14:25:53;8.35;;;4.95;;
41946;SDS011;27638;42.184;24.848;2022-10-16T14:28:22;12.48;;;5.15;;
41946;SDS011;27638;42.184;24.848;2022-10-16T14:30:54;8.48;;;5.35;;
41946;SDS011;27638;42.184;24.848;2022-10-16T14:35:56;7.78;;;5.65;;
41946;SDS011;27638;42.184;24.848;2022-10-16T14:38:24;8.80;;;5.18;;
41946;SDS011;27638;42.184;24.848;2022-10-16T14:40:50;12.18;;;5.88;;
41946;SDS011;27638;42.184;24.848;2022-10-16T14:43:30;9.80;;;4.93;;
41946;SDS011;27638;42.184;24.848;2022-10-16T14:46:01;8.65;;;4.93;;
41946;SDS011;27638;42.184;24.848;2022-10-16T14:48:40;12.18;;;5.18;;
41946;SDS011;27638;42.184;24.848;2022-10-16T14:51:08;16.50;;;5.50;;
41946;SDS011;27638;42.184;24.848;2022-10-16T14:53:39;11.15;;;5.25;;
41946;SDS011;27638;42.184;24.848;2022-10-16T14:56:08;11.27;;;5.47;;
41946;SDS011;27638;42.184;24.848;2022-10-16T14:58:39;8.23;;;5.13;;
41946;SDS011;27638;42.184;24.848;2022-10-16T15:01:05;12.10;;;5.18;;
41946;SDS011;27638;42.184;24.848;2022-10-16T15:03:31;11.55;;;5.50;;
41946;SDS011;27638;42.184;24.848;2022-10-16T15:05:57;12.38;;;5.18;;
41946;SDS011;27638;42.184;24.848;2022-10-16T15:08:22;7.45;;;4.35;;
41946;SDS011;27638;42.184;24.848;2022-10-16T15:10:48;12.45;;;4.93;;
41946;SDS011;27638;42.184;24.848;2022-10-16T15:13:13;9.27;;;4.68;;
41946;SDS011;27638;42.184;24.848;2022-10-16T15:15:41;11.15;;;5.15;;
41946;SDS011;27638;42.184;24.848;2022-10-16T15:18:11;10.23;;;4.50;;
41946;SDS011;27638;42.184;24.848;2022-10-16T15:20:39;5.43;;;4.07;;
41946;SDS011;27638;42.184;24.848;2022-10-16T15:23:06;8.35;;;4.38;;
41946;SDS011;27638;42.184;24.848;2022-10-16T15:25:54;7.32;;;4.40;;
41946;SDS011;27638;42.184;24.848;2022-10-16T15:28:21;7.80;;;4.68;;
41946;SDS011;27638;42.184;24.848;2022-10-16T15:30:51;9.10;;;4.60;;
41946;SDS011;27638;42.184;24.848;2022-10-16T15:33:23;6.65;;;4.05;;
41946;SDS011;27638;42.184;24.848;2022-10-16T15:35:52;16.80;;;5.15;;
41946;SDS011;27638;42.184;24.848;2022-10-16T15:38:19;8.70;;;4.22;;
41946;SDS011;27638;42.184;24.848;2022-10-16T15:40:47;9.45;;;4.57;;
41946;SDS011;27638;42.184;24.848;2022-10-16T15:43:13;8.57;;;4.68;;
41946;SDS011;27638;42.184;24.848;2022-10-16T15:45:39;10.82;;;5.45;;
41946;SDS011;27638;42.184;24.848;2022-10-16T15:48:05;9.05;;;4.85;;
41946;SDS011;27638;42.184;24.848;2022-10-16T15:50:31;11.70;;;5.18;;
41946;SDS011;27638;42.184;24.848;2022-10-16T15:52:57;12.15;;;6.15;;
41946;SDS011;27638;42.184;24.848;2022-10-16T15:55:23;11.45;;;5.68;;
41946;SDS011;27638;42.184;24.848;2022-10-16T15:57:49;16.15;;;5.60;;
41946;SDS011;27638;42.184;24.848;2022-10-16T16:00:15;15.55;;;5.50;;
41946;SDS011;27638;42.184;24.848;2022-10-16T16:02:48;13.80;;;5.55;;
41946;SDS011;27638;42.184;24.848;2022-10-16T16:05:16;16.15;;;6.03;;
41946;SDS011;27638;42.184;24.848;2022-10-16T16:07:41;12.38;;;5.28;;
41946;SDS011;27638;42.184;24.848;2022-10-16T16:10:08;15.40;;;5.63;;
41946;SDS011;27638;42.184;24.848;2022-10-16T16:12:35;11.63;;;5.20;;
41946;SDS011;27638;42.184;24.848;2022-10-16T16:15:02;16.90;;;6.18;;
41946;SDS011;27638;42.184;24.848;2022-10-16T16:17:30;11.02;;;5.70;;
41946;SDS011;27638;42.184;24.848;2022-10-16T16:19:56;18.05;;;6.25;;
41946;SDS011;27638;42.184;24.848;2022-10-16T16:22:22;13.60;;;5.43;;
41946;SDS011;27638;42.184;24.848;2022-10-16T16:24:47;20.67;;;8.90;;
41946;SDS011;27638;42.184;24.848;2022-10-16T16:27:13;16.50;;;8.27;;
41946;SDS011;27638;42.184;24.848;2022-10-16T16:29:39;14.02;;;6.88;;
41946;SDS011;27638;42.184;24.848;2022-10-16T16:32:05;10.75;;;6.38;;
41946;SDS011;27638;42.184;24.848;2022-10-16T16:34:31;18.13;;;6.20;;
41946;SDS011;27638;42.184;24.848;2022-10-16T16:36:57;14.98;;;7.07;;
41946;SDS011;27638;42.184;24.848;2022-10-16T16:39:23;16.73;;;8.38;;
41946;SDS011;27638;42.184;24.848;2022-10-16T16:41:49;45.72;;;20.90;;
41946;SDS011;27638;42.184;24.848;2022-10-16T16:44:15;180.57;;;89.57;;
41946;SDS011;27638;42.184;24.848;2022-10-16T16:46:42;111.40;;;53.05;;
41946;SDS011;27638;42.184;24.848;2022-10-16T16:49:09;49.08;;;24.23;;
41946;SDS011;27638;42.184;24.848;2022-10-16T16:51:40;41.35;;;20.65;;
41946;SDS011;27638;42.184;24.848;2022-10-16T16:54:06;46.10;;;20.83;;
41946;SDS011;27638;42.184;24.848;2022-10-16T16:56:32;36.70;;;18.83;;